Time;durP1;ratioP1;P1;durP2;ratioP2;P2;SDS_P1;SDS_P2;PMS_P1;PMS_P2;Temp;Humidity;BMP_temperature;BMP_pressure;BME280_temperature;BME280_humidity;BME280_pressure;Samples;Min_cycle;Max_cycle;Signal;HPM_P1;HPM_P2
2021/08/19 00:00:44;;;;;;;8.93;7.00;;;17.20;90.50;;;;;;2066804;28;20069;-93
2021/08/19 00:01:45;;;;;;;8.75;6.70;;;17.20;90.60;;;;;;2058850;28;20057;-93
2021/08/19 00:02:45;;;;;;;9.23;6.97;;;17.20;90.60;;;;;;2050022;29;20082;-93
2021/08/19 00:03:46;;;;;;;9.93;7.35;;;17.20;90.90;;;;;;2047297;28;20119;-93
2021/08/19 00:04:47;;;;;;;8.95;7.07;;;17.20;90.70;;;;;;2058971;28;20047;-93
2021/08/19 00:05:47;;;;;;;10.57;7.80;;;17.20;90.70;;;;;;2067312;28;20056;-93
2021/08/19 00:06:48;;;;;;;10.82;6.97;;;17.20;90.70;;;;;;2034581;29;20071;-93
2021/08/19 00:07:49;;;;;;;10.20;7.53;;;17.20;90.70;;;;;;2042153;29;20130;-93
2021/08/19 00:08:49;;;;;;;10.07;7.45;;;17.20;90.70;;;;;;2049123;28;20062;-93
2021/08/19 00:09:51;;;;;;;9.68;6.93;;;17.20;90.70;;;;;;2050712;28;20513;-93
2021/08/19 00:10:52;;;;;;;10.00;7.72;;;17.20;90.70;;;;;;2042615;29;20035;-93
2021/08/19 00:11:53;;;;;;;9.27;7.25;;;17.20;90.70;;;;;;2042779;29;20055;-93
2021/08/19 00:12:53;;;;;;;9.75;7.35;;;17.20;90.70;;;;;;2042734;29;20123;-93
2021/08/19 00:13:54;;;;;;;9.43;7.63;;;17.20;90.70;;;;;;2050765;29;20035;-91
2021/08/19 00:14:55;;;;;;;9.98;7.32;;;17.20;90.80;;;;;;2043098;29;20036;-93
2021/08/19 00:15:56;;;;;;;9.52;7.35;;;17.20;90.80;;;;;;2035387;29;20055;-93
2021/08/19 00:16:57;;;;;;;9.75;7.30;;;17.20;90.80;;;;;;2050604;28;20031;-93
2021/08/19 00:17:57;;;;;;;9.60;7.00;;;17.20;90.80;;;;;;2050318;29;20035;-93
2021/08/19 00:18:58;;;;;;;9.70;7.38;;;17.20;90.80;;;;;;2050151;29;20167;-93
2021/08/19 00:19:59;;;;;;;9.85;7.68;;;17.10;90.80;;;;;;2034572;29;20044;-93
2021/08/19 00:20:59;;;;;;;9.00;7.20;;;17.10;90.80;;;;;;2042577;29;20043;-93
2021/08/19 00:22:05;;;;;;;9.32;7.25;;;17.10;90.80;;;;;;2051647;28;20525;-92
2021/08/19 00:23:05;;;;;;;9.80;7.25;;;17.10;90.80;;;;;;2050560;29;20175;-93
2021/08/19 00:24:06;;;;;;;8.25;6.85;;;17.20;90.90;;;;;;2045976;29;20485;-93
2021/08/19 00:25:07;;;;;;;9.93;7.25;;;17.10;90.80;;;;;;2050674;29;20039;-93
2021/08/19 00:26:08;;;;;;;9.82;7.78;;;17.10;90.90;;;;;;2042731;29;20068;-93
2021/08/19 00:27:09;;;;;;;9.20;7.32;;;17.20;90.90;;;;;;2049086;28;20035;-93
2021/08/19 00:28:09;;;;;;;9.43;7.63;;;17.10;90.90;;;;;;2049753;29;20478;-93
2021/08/19 00:29:10;;;;;;;9.77;7.47;;;17.10;90.90;;;;;;2042047;29;20036;-93
2021/08/19 00:30:11;;;;;;;10.07;7.90;;;17.20;90.90;;;;;;2036197;29;20044;-93
2021/08/19 00:31:12;;;;;;;10.32;7.40;;;17.20;90.90;;;;;;2033606;29;20040;-94
2021/08/19 00:32:12;;;;;;;8.98;7.28;;;17.20;90.90;;;;;;2034184;29;20570;-93
2021/08/19 00:33:13;;;;;;;10.35;7.82;;;17.20;90.90;;;;;;2033875;29;20127;-93
2021/08/19 00:34:14;;;;;;;9.65;7.63;;;17.20;90.90;;;;;;2056927;28;20042;-93
2021/08/19 00:35:14;;;;;;;10.10;7.25;;;17.20;90.90;;;;;;2051244;28;20035;-92
2021/08/19 00:36:15;;;;;;;8.82;7.22;;;17.20;90.90;;;;;;2050175;28;20130;-93
2021/08/19 00:37:16;;;;;;;9.13;7.13;;;17.20;90.90;;;;;;2050826;28;20105;-93
2021/08/19 00:38:16;;;;;;;9.18;7.20;;;17.20;90.90;;;;;;2041984;29;20036;-93
2021/08/19 00:39:18;;;;;;;9.30;7.50;;;17.20;90.90;;;;;;2050104;28;20027;-92
2021/08/19 00:40:19;;;;;;;10.05;7.07;;;17.20;90.90;;;;;;2041873;28;20071;-93
2021/08/19 00:41:20;;;;;;;8.50;7.00;;;17.20;90.90;;;;;;2036532;29;20039;-93
2021/08/19 00:42:20;;;;;;;10.23;7.05;;;17.20;90.90;;;;;;2034251;29;20131;-93
2021/08/19 00:43:21;;;;;;;9.55;7.28;;;17.20;90.90;;;;;;2041496;29;20181;-92
2021/08/19 00:44:22;;;;;;;9.48;7.07;;;17.20;90.90;;;;;;2034153;29;20044;-93
2021/08/19 00:45:25;;;;;;;8.93;6.82;;;17.20;90.90;;;;;;2042593;28;20042;-93
2021/08/19 00:46:31;;;;;;;9.23;7.22;;;17.20;90.90;;;;;;2050192;28;20035;-93
2021/08/19 00:47:33;;;;;;;9.48;7.30;;;17.20;90.90;;;;;;2046808;28;20169;-93
2021/08/19 00:48:35;;;;;;;8.93;6.93;;;17.20;90.90;;;;;;2049595;28;20027;-93
2021/08/19 00:49:39;;;;;;;9.32;7.35;;;17.20;90.90;;;;;;2049837;28;20213;-94
2021/08/19 00:50:41;;;;;;;9.60;6.78;;;17.20;90.90;;;;;;2043310;28;20040;-93
2021/08/19 00:51:48;;;;;;;8.98;7.05;;;17.20;90.90;;;;;;2047013;28;20103;-93
2021/08/19 00:52:49;;;;;;;11.05;6.90;;;17.20;90.90;;;;;;2044312;29;20119;-93
2021/08/19 00:53:49;;;;;;;8.85;6.82;;;17.20;90.90;;;;;;2050412;28;20461;-93
2021/08/19 00:54:50;;;;;;;8.85;6.90;;;17.30;90.90;;;;;;2059796;28;20512;-93
2021/08/19 00:55:51;;;;;;;8.88;6.90;;;17.20;91.10;;;;;;2056956;28;20026;-93
2021/08/19 00:56:57;;;;;;;8.50;6.40;;;17.30;90.90;;;;;;2057644;28;20081;-93
2021/08/19 00:57:57;;;;;;;9.00;6.85;;;17.30;90.90;;;;;;2035176;29;20036;-93
2021/08/19 00:58:58;;;;;;;8.88;6.85;;;17.30;90.90;;;;;;2042328;29;20043;-93
2021/08/19 00:59:59;;;;;;;9.55;7.35;;;17.30;90.90;;;;;;2042642;29;20136;-93
2021/08/19 01:01:00;;;;;;;9.05;6.97;;;17.30;90.90;;;;;;2061427;28;20034;-94
2021/08/19 01:02:04;;;;;;;8.85;6.90;;;17.30;90.90;;;;;;2042452;29;20099;-93
2021/08/19 01:03:06;;;;;;;9.60;6.90;;;17.30;90.90;;;;;;2035528;29;20069;-93
2021/08/19 01:04:08;;;;;;;9.82;7.13;;;17.30;90.90;;;;;;2050352;28;20083;-93
2021/08/19 01:05:11;;;;;;;9.10;7.10;;;17.30;90.90;;;;;;2050430;28;20047;-93
2021/08/19 01:06:12;;;;;;;8.48;6.13;;;17.30;90.90;;;;;;2050455;29;20059;-93
2021/08/19 01:07:16;;;;;;;9.75;7.00;;;17.30;90.90;;;;;;2049474;28;20050;-93
2021/08/19 01:08:18;;;;;;;7.88;6.28;;;17.30;90.90;;;;;;2041655;29;20047;-93
2021/08/19 01:09:19;;;;;;;9.95;6.90;;;17.30;90.90;;;;;;2042268;29;20103;-93
2021/08/19 01:10:19;;;;;;;8.63;6.18;;;17.30;90.90;;;;;;2042453;29;20080;-93
2021/08/19 01:11:21;;;;;;;8.70;6.53;;;17.30;90.90;;;;;;2041971;29;20043;-93
2021/08/19 01:12:22;;;;;;;9.50;6.88;;;17.30;90.90;;;;;;2046958;29;20055;-93
2021/08/19 01:13:23;;;;;;;8.60;6.50;;;17.30;90.90;;;;;;2042704;29;20039;-94
2021/08/19 01:14:23;;;;;;;9.07;6.88;;;17.30;90.90;;;;;;2050172;28;20043;-93
2021/08/19 01:15:25;;;;;;;9.00;6.72;;;17.30;90.90;;;;;;2041249;29;20047;-93
2021/08/19 01:16:28;;;;;;;9.85;6.70;;;17.30;90.90;;;;;;2044532;28;20071;-92
2021/08/19 01:17:30;;;;;;;8.43;6.45;;;17.30;90.80;;;;;;2047261;29;20031;-93
2021/08/19 01:18:41;;;;;;;9.43;6.72;;;17.30;91.10;;;;;;2043074;29;20064;-93
2021/08/19 01:19:45;;;;;;;8.43;6.20;;;17.30;90.80;;;;;;2062077;28;20041;-93
2021/08/19 01:20:46;;;;;;;9.30;6.28;;;17.30;91.10;;;;;;2058975;29;20039;-93
2021/08/19 01:21:54;;;;;;;9.93;6.60;;;17.30;90.80;;;;;;2050946;29;20036;-94
2021/08/19 01:22:56;;;;;;;8.75;6.57;;;17.30;90.80;;;;;;2067598;28;20042;-94
2021/08/19 01:23:58;;;;;;;8.20;6.03;;;17.30;90.80;;;;;;2059001;29;20020;-93
2021/08/19 01:24:58;;;;;;;8.77;6.38;;;17.30;90.80;;;;;;2060542;28;20031;-93
2021/08/19 01:26:21;;;;;;;8.82;6.47;;;17.30;90.80;;;;;;2059931;28;20130;-93
2021/08/19 01:27:22;;;;;;;9.68;6.15;;;17.30;90.80;;;;;;2065016;28;20093;-92
2021/08/19 01:28:23;;;;;;;7.97;5.93;;;17.30;90.80;;;;;;2075012;28;20034;-93
2021/08/19 01:29:23;;;;;;;8.02;6.10;;;17.30;90.80;;;;;;2060519;28;20047;-92
2021/08/19 01:30:25;;;;;;;9.98;6.82;;;17.30;90.80;;;;;;2050524;29;20044;-93
2021/08/19 01:31:26;;;;;;;9.20;6.47;;;17.30;90.80;;;;;;2045132;28;20039;-90
2021/08/19 01:32:32;;;;;;;8.68;6.03;;;17.30;90.80;;;;;;2068371;28;20027;-91
2021/08/19 01:33:34;;;;;;;8.57;6.13;;;17.30;90.70;;;;;;2056233;29;20027;-92
2021/08/19 01:34:35;;;;;;;9.38;6.07;;;17.30;90.70;;;;;;2050807;28;20073;-93
2021/08/19 01:35:35;;;;;;;8.18;5.90;;;17.30;90.80;;;;;;2056891;28;20083;-92
2021/08/19 01:36:39;;;;;;;9.73;6.13;;;17.20;90.70;;;;;;2050457;28;20082;-92
2021/08/19 01:37:40;;;;;;;8.25;6.15;;;17.20;90.80;;;;;;2058306;28;20087;-93
2021/08/19 01:38:42;;;;;;;8.88;6.13;;;17.20;90.80;;;;;;2058123;28;20035;-93
2021/08/19 01:39:42;;;;;;;9.68;6.35;;;17.20;90.80;;;;;;2050414;28;20042;-92
2021/08/19 01:40:43;;;;;;;8.88;5.70;;;17.20;90.80;;;;;;2044141;29;20049;-92
2021/08/19 01:41:44;;;;;;;8.40;6.03;;;17.20;90.80;;;;;;2039114;29;20043;-93
2021/08/19 01:42:47;;;;;;;7.95;5.70;;;17.20;90.80;;;;;;2050603;29;20059;-93
2021/08/19 01:43:52;;;;;;;8.27;5.80;;;17.10;91.10;;;;;;2074196;28;20029;-92
2021/08/19 01:44:53;;;;;;;8.60;6.10;;;17.10;90.80;;;;;;2060428;28;20085;-92
2021/08/19 01:46:04;;;;;;;7.65;5.53;;;17.10;90.80;;;;;;2056815;28;20043;-93
2021/08/19 01:47:07;;;;;;;9.23;6.03;;;17.10;90.80;;;;;;2065720;28;20031;-92
2021/08/19 01:48:07;;;;;;;7.68;5.50;;;17.10;90.80;;;;;;2063026;28;20110;-93
2021/08/19 01:49:08;;;;;;;7.95;5.82;;;17.10;90.80;;;;;;2041552;29;20043;-93
2021/08/19 01:50:09;;;;;;;9.07;6.05;;;17.10;90.80;;;;;;2049169;28;20036;-92
2021/08/19 01:51:11;;;;;;;9.77;6.38;;;17.10;90.80;;;;;;2060900;28;20517;-93
2021/08/19 01:52:12;;;;;;;8.25;5.80;;;17.10;90.90;;;;;;2066226;28;20023;-93
2021/08/19 01:53:12;;;;;;;8.43;5.78;;;17.10;90.80;;;;;;2056475;28;20035;-93
2021/08/19 01:54:13;;;;;;;8.80;5.90;;;17.10;90.90;;;;;;2051340;29;20063;-93
2021/08/19 01:55:14;;;;;;;9.13;6.25;;;17.10;90.90;;;;;;2061917;28;20031;-93
2021/08/19 01:56:18;;;;;;;9.15;5.90;;;17.10;90.80;;;;;;2049067;29;20042;-94
2021/08/19 01:57:19;;;;;;;8.00;5.63;;;17.20;90.90;;;;;;2056249;28;20035;-93
2021/08/19 01:58:20;;;;;;;9.27;6.13;;;17.20;90.90;;;;;;2038579;29;20042;-94
2021/08/19 01:59:22;;;;;;;7.63;5.78;;;17.20;90.80;;;;;;2041151;28;20032;-93
2021/08/19 02:00:23;;;;;;;7.63;5.72;;;17.20;90.90;;;;;;2058334;28;20051;-93
2021/08/19 02:01:26;;;;;;;8.57;5.90;;;17.20;90.90;;;;;;2042084;29;20035;-94
2021/08/19 02:02:26;;;;;;;9.70;5.93;;;17.20;90.80;;;;;;2058075;28;20037;-93
2021/08/19 02:03:27;;;;;;;6.80;5.35;;;17.20;90.80;;;;;;2060679;28;20042;-94
2021/08/19 02:04:29;;;;;;;8.43;5.55;;;17.20;90.80;;;;;;2049900;29;20031;-93
2021/08/19 02:05:30;;;;;;;8.30;5.60;;;17.20;90.80;;;;;;2063705;28;20038;-93
2021/08/19 02:06:31;;;;;;;7.47;5.40;;;17.20;90.80;;;;;;2035367;28;20084;-93
2021/08/19 02:07:31;;;;;;;8.10;5.68;;;17.20;90.80;;;;;;2049665;29;20106;-93
2021/08/19 02:08:32;;;;;;;8.25;5.75;;;17.20;90.80;;;;;;2053218;28;20046;-94
2021/08/19 02:09:33;;;;;;;9.20;6.22;;;17.20;90.80;;;;;;2049811;29;20055;-93
2021/08/19 02:10:35;;;;;;;8.90;5.75;;;17.20;90.80;;;;;;2041834;29;20075;-93
2021/08/19 02:11:38;;;;;;;9.30;5.80;;;17.30;90.90;;;;;;2057986;28;20155;-93
2021/08/19 02:12:38;;;;;;;9.05;5.95;;;17.30;90.80;;;;;;2042178;29;20040;-93
2021/08/19 02:13:39;;;;;;;8.38;5.72;;;17.30;91.10;;;;;;2034250;29;20563;-93
2021/08/19 02:14:40;;;;;;;8.10;5.88;;;17.20;90.80;;;;;;2052069;28;20035;-94
2021/08/19 02:15:41;;;;;;;7.82;5.57;;;17.30;90.80;;;;;;2054120;28;20081;-93
2021/08/19 02:16:43;;;;;;;8.38;5.80;;;17.30;90.80;;;;;;2047335;29;20075;-93
2021/08/19 02:17:43;;;;;;;9.05;5.50;;;17.30;90.80;;;;;;2050947;28;20070;-93
2021/08/19 02:18:44;;;;;;;10.32;6.22;;;17.20;90.80;;;;;;2034886;29;20044;-93
2021/08/19 02:19:44;;;;;;;9.25;6.55;;;17.30;90.80;;;;;;2046973;28;20031;-93
2021/08/19 02:20:45;;;;;;;9.55;6.55;;;17.30;90.80;;;;;;2059603;28;20179;-93
2021/08/19 02:21:46;;;;;;;8.80;6.03;;;17.30;90.80;;;;;;2066056;28;20034;-94
2021/08/19 02:22:50;;;;;;;7.97;6.07;;;17.30;90.80;;;;;;2065729;28;20066;-93
2021/08/19 02:23:50;;;;;;;9.35;6.40;;;17.30;90.80;;;;;;2059746;28;20034;-94
2021/08/19 02:24:52;;;;;;;7.55;5.65;;;17.30;90.80;;;;;;2058258;29;20050;-93
2021/08/19 02:25:53;;;;;;;8.05;6.10;;;17.30;90.80;;;;;;2059248;28;20043;-94
2021/08/19 02:26:54;;;;;;;9.18;6.10;;;17.30;90.80;;;;;;2049293;28;20038;-93
2021/08/19 02:27:56;;;;;;;8.25;5.80;;;17.30;90.80;;;;;;2034302;29;20032;-94
2021/08/19 02:28:56;;;;;;;9.02;6.20;;;17.30;90.80;;;;;;2049413;29;20087;-93
2021/08/19 02:29:57;;;;;;;8.90;6.45;;;17.30;91.20;;;;;;2055353;28;20050;-93
2021/08/19 02:30:58;;;;;;;10.52;6.63;;;17.30;90.80;;;;;;2058242;28;20402;-93
2021/08/19 02:31:58;;;;;;;9.13;6.63;;;17.30;90.80;;;;;;2066976;28;20062;-93
2021/08/19 02:33:01;;;;;;;10.10;7.18;;;17.30;90.80;;;;;;2068017;28;20019;-90
2021/08/19 02:34:02;;;;;;;9.43;6.72;;;17.30;90.80;;;;;;2059868;28;20054;-90
2021/08/19 02:35:03;;;;;;;9.75;6.65;;;17.40;90.90;;;;;;2051443;28;20111;-93
2021/08/19 02:36:04;;;;;;;8.90;6.72;;;17.30;90.80;;;;;;2059375;28;20019;-91
2021/08/19 02:37:05;;;;;;;9.07;7.03;;;17.40;90.90;;;;;;2060720;28;20023;-93
2021/08/19 02:38:06;;;;;;;9.93;6.75;;;17.40;90.90;;;;;;2044407;29;20027;-89
2021/08/19 02:39:07;;;;;;;9.45;6.55;;;17.40;90.90;;;;;;2044466;29;20031;-92
2021/08/19 02:40:08;;;;;;;9.27;6.75;;;17.40;90.90;;;;;;2059416;28;20027;-92
2021/08/19 02:41:09;;;;;;;9.95;7.05;;;17.40;90.90;;;;;;2051993;28;20031;-91
2021/08/19 02:42:09;;;;;;;11.18;7.50;;;17.40;90.90;;;;;;2051954;28;20107;-89
2021/08/19 02:43:10;;;;;;;10.05;7.20;;;17.40;90.90;;;;;;2060026;28;20047;-92
2021/08/19 02:44:11;;;;;;;10.25;7.05;;;17.40;90.90;;;;;;2076117;28;20011;-88
2021/08/19 02:45:12;;;;;;;11.13;7.90;;;17.40;90.90;;;;;;2066001;28;20062;-92
2021/08/19 02:46:13;;;;;;;9.05;7.00;;;17.40;91.00;;;;;;2064193;28;20035;-92
2021/08/19 02:47:14;;;;;;;10.15;7.72;;;17.40;91.00;;;;;;2059932;28;20050;-92
2021/08/19 02:48:14;;;;;;;11.15;7.55;;;17.40;91.20;;;;;;2057610;28;20035;-94
2021/08/19 02:49:15;;;;;;;12.02;7.85;;;17.50;91.00;;;;;;2045624;29;20053;-93
2021/08/19 02:50:17;;;;;;;10.30;7.32;;;17.40;91.00;;;;;;2042457;29;20040;-93
2021/08/19 02:51:18;;;;;;;10.68;7.82;;;17.40;91.00;;;;;;2046255;29;20060;-93
2021/08/19 02:52:18;;;;;;;10.10;7.50;;;17.40;91.00;;;;;;2046281;29;20095;-92
2021/08/19 02:53:19;;;;;;;10.65;7.40;;;17.50;91.00;;;;;;2051487;28;20027;-92
2021/08/19 02:54:20;;;;;;;11.55;7.88;;;17.50;91.00;;;;;;2047720;28;20070;-93
2021/08/19 02:55:20;;;;;;;9.98;7.65;;;17.50;91.10;;;;;;2051543;28;20544;-92
2021/08/19 02:56:23;;;;;;;11.05;7.88;;;17.50;91.10;;;;;;2045254;29;20055;-92
2021/08/19 02:57:23;;;;;;;11.07;8.32;;;17.50;91.10;;;;;;2035151;29;20119;-93
2021/08/19 02:58:24;;;;;;;12.38;8.23;;;17.50;91.10;;;;;;2042856;29;20490;-93
2021/08/19 02:59:25;;;;;;;12.25;8.32;;;17.50;91.10;;;;;;2041986;28;20082;-93
2021/08/19 03:00:26;;;;;;;12.30;8.50;;;17.50;91.10;;;;;;2045351;29;20036;-94
2021/08/19 03:01:27;;;;;;;11.45;8.85;;;17.50;91.10;;;;;;2049538;28;20031;-93
2021/08/19 03:02:27;;;;;;;14.45;9.38;;;17.50;91.20;;;;;;2049736;28;20032;-93
2021/08/19 03:03:28;;;;;;;15.13;9.93;;;17.50;91.20;;;;;;2049069;28;20047;-93
2021/08/19 03:04:29;;;;;;;12.90;9.82;;;17.50;91.20;;;;;;2041391;29;20028;-93
2021/08/19 03:05:29;;;;;;;14.95;11.10;;;17.50;91.20;;;;;;2041845;29;20091;-93
2021/08/19 03:06:30;;;;;;;13.45;10.60;;;17.50;91.20;;;;;;2033710;29;20131;-92
2021/08/19 03:07:31;;;;;;;13.63;10.70;;;17.50;91.20;;;;;;2041570;29;20087;-92
2021/08/19 03:08:31;;;;;;;12.02;10.00;;;17.50;91.30;;;;;;2041497;29;20040;-92
2021/08/19 03:09:32;;;;;;;13.55;9.85;;;17.50;91.30;;;;;;2041531;29;20044;-93
2021/08/19 03:10:33;;;;;;;12.13;10.23;;;17.50;91.30;;;;;;2025760;29;20506;-92
2021/08/19 03:11:33;;;;;;;11.85;9.38;;;17.50;91.30;;;;;;2018040;29;20045;-93
2021/08/19 03:12:34;;;;;;;12.35;10.23;;;17.50;91.30;;;;;;2032317;29;20044;-93
2021/08/19 03:13:35;;;;;;;13.65;10.45;;;17.50;91.30;;;;;;2040500;29;20047;-94
2021/08/19 03:14:36;;;;;;;14.00;11.10;;;17.50;91.30;;;;;;2035381;29;20028;-93
2021/08/19 03:15:37;;;;;;;13.93;11.02;;;17.50;91.30;;;;;;2041101;29;20035;-93
2021/08/19 03:16:37;;;;;;;12.95;10.50;;;17.60;91.40;;;;;;2055051;28;20037;-93
2021/08/19 03:17:38;;;;;;;12.85;10.82;;;17.60;91.40;;;;;;2057405;28;20089;-93
2021/08/19 03:18:39;;;;;;;15.35;11.32;;;17.60;91.40;;;;;;2057639;28;20481;-93
2021/08/19 03:19:40;;;;;;;14.52;11.45;;;17.60;91.40;;;;;;2033710;29;20068;-93
2021/08/19 03:20:40;;;;;;;14.88;11.18;;;17.60;91.40;;;;;;2038582;29;20047;-93
2021/08/19 03:21:41;;;;;;;15.10;11.85;;;17.60;91.40;;;;;;2049206;29;20039;-94
2021/08/19 03:22:42;;;;;;;16.00;10.95;;;17.60;91.40;;;;;;2040630;29;20027;-94
2021/08/19 03:23:43;;;;;;;13.55;11.32;;;17.60;91.40;;;;;;2049348;29;20156;-93
2021/08/19 03:24:43;;;;;;;14.02;10.90;;;17.60;91.40;;;;;;2041492;29;20160;-93
2021/08/19 03:25:44;;;;;;;12.82;10.80;;;17.60;91.40;;;;;;2041314;29;20401;-93
2021/08/19 03:26:45;;;;;;;13.68;10.77;;;17.60;91.40;;;;;;2040891;29;20417;-93
2021/08/19 03:27:46;;;;;;;15.77;11.63;;;17.60;91.50;;;;;;2048920;28;20035;-93
2021/08/19 03:28:46;;;;;;;13.50;10.80;;;17.60;91.50;;;;;;2041878;29;20126;-93
2021/08/19 03:29:48;;;;;;;13.25;10.80;;;17.60;91.50;;;;;;2033502;29;20048;-94
2021/08/19 03:30:50;;;;;;;14.75;11.45;;;17.60;91.50;;;;;;2034032;29;20044;-92
2021/08/19 03:31:51;;;;;;;14.23;10.70;;;17.60;91.50;;;;;;2046542;28;20043;-92
2021/08/19 03:32:52;;;;;;;13.85;11.35;;;17.60;91.50;;;;;;2057247;28;20543;-93
2021/08/19 03:33:53;;;;;;;13.07;10.82;;;17.60;91.50;;;;;;2048339;28;20087;-93
2021/08/19 03:34:53;;;;;;;13.38;10.80;;;17.60;91.50;;;;;;2048744;28;20035;-93
2021/08/19 03:35:54;;;;;;;14.68;10.77;;;17.60;91.50;;;;;;2038633;29;20071;-93
2021/08/19 03:36:55;;;;;;;12.48;10.35;;;17.60;91.50;;;;;;2025313;29;20395;-92
2021/08/19 03:37:56;;;;;;;14.65;10.00;;;17.60;91.50;;;;;;2033374;29;20040;-92
2021/08/19 03:38:56;;;;;;;13.57;10.50;;;17.60;91.50;;;;;;2049479;28;20039;-93
2021/08/19 03:39:57;;;;;;;12.85;10.27;;;17.60;91.50;;;;;;2049230;29;20039;-93
2021/08/19 03:40:58;;;;;;;13.68;10.52;;;17.60;91.50;;;;;;2041671;29;20036;-93
2021/08/19 03:41:59;;;;;;;12.48;10.32;;;17.60;91.50;;;;;;2049040;28;20547;-93
2021/08/19 03:42:59;;;;;;;15.90;12.13;;;17.60;91.60;;;;;;2033508;29;20052;-92
2021/08/19 03:44:00;;;;;;;13.65;11.15;;;17.60;91.60;;;;;;2043128;28;20037;-93
2021/08/19 03:45:01;;;;;;;13.70;10.07;;;17.60;91.60;;;;;;2060908;28;20133;-93
2021/08/19 03:46:01;;;;;;;14.25;10.77;;;17.60;91.60;;;;;;2051521;28;20043;-93
2021/08/19 03:47:04;;;;;;;12.07;9.55;;;17.60;91.60;;;;;;2033552;29;20049;-93
2021/08/19 03:48:05;;;;;;;12.20;9.50;;;17.60;91.60;;;;;;2039220;29;20046;-93
2021/08/19 03:49:06;;;;;;;11.55;9.60;;;17.60;91.60;;;;;;2049334;28;20038;-92
2021/08/19 03:50:09;;;;;;;13.25;9.45;;;17.50;91.60;;;;;;2040929;29;20043;-92
2021/08/19 03:51:10;;;;;;;12.75;9.73;;;17.60;91.60;;;;;;2041592;28;20127;-93
2021/08/19 03:52:11;;;;;;;13.35;10.15;;;17.60;91.60;;;;;;2057044;28;20043;-93
2021/08/19 03:53:11;;;;;;;11.55;9.00;;;17.50;91.60;;;;;;2056976;28;20031;-93
2021/08/19 03:54:12;;;;;;;11.07;9.10;;;17.50;91.60;;;;;;2049323;28;20068;-93
2021/08/19 03:55:13;;;;;;;11.23;9.07;;;17.60;91.60;;;;;;2048890;28;20046;-92
2021/08/19 03:56:14;;;;;;;12.27;8.95;;;17.60;91.60;;;;;;2041579;28;20071;-93
2021/08/19 03:57:14;;;;;;;10.43;8.20;;;17.50;91.60;;;;;;2049231;29;20047;-93
2021/08/19 03:58:15;;;;;;;11.40;9.15;;;17.60;91.60;;;;;;2049131;28;20059;-93
2021/08/19 03:59:16;;;;;;;11.63;9.35;;;17.60;91.60;;;;;;2041572;29;20055;-93
2021/08/19 04:00:17;;;;;;;11.80;9.10;;;17.60;91.60;;;;;;2048974;29;20122;-93
2021/08/19 04:01:18;;;;;;;10.15;8.40;;;17.60;91.60;;;;;;2049444;28;20082;-93
2021/08/19 04:02:18;;;;;;;11.05;9.20;;;17.50;91.50;;;;;;2046369;29;20032;-93
2021/08/19 04:03:19;;;;;;;10.88;8.43;;;17.50;91.60;;;;;;2041519;29;20036;-93
2021/08/19 04:04:20;;;;;;;11.45;8.60;;;17.50;91.60;;;;;;2049664;28;20039;-94
2021/08/19 04:05:20;;;;;;;11.48;9.00;;;17.50;91.60;;;;;;2038827;29;20039;-93
2021/08/19 04:06:21;;;;;;;11.50;8.95;;;17.50;91.50;;;;;;2042141;29;20055;-93
2021/08/19 04:07:22;;;;;;;12.27;8.82;;;17.50;91.50;;;;;;2033819;29;20491;-93
2021/08/19 04:08:22;;;;;;;10.23;8.15;;;17.50;91.50;;;;;;2042852;29;20080;-93
2021/08/19 04:09:23;;;;;;;11.95;8.88;;;17.50;91.50;;;;;;2057533;28;20039;-93
2021/08/19 04:10:24;;;;;;;10.40;8.18;;;17.50;91.60;;;;;;2049788;29;20119;-92
2021/08/19 04:11:25;;;;;;;9.70;7.97;;;17.50;91.60;;;;;;2050114;28;20035;-93
2021/08/19 04:12:26;;;;;;;11.65;7.75;;;17.50;91.60;;;;;;2050349;28;20066;-92
2021/08/19 04:13:27;;;;;;;9.55;7.40;;;17.50;91.60;;;;;;2056108;29;20031;-93
2021/08/19 04:14:28;;;;;;;9.88;7.10;;;17.50;91.60;;;;;;2063864;28;20039;-92
2021/08/19 04:15:28;;;;;;;10.75;7.50;;;17.40;91.50;;;;;;2056620;28;20035;-93
2021/08/19 04:16:29;;;;;;;9.15;7.07;;;17.40;91.50;;;;;;2065170;28;20039;-93
2021/08/19 04:17:30;;;;;;;9.57;7.07;;;17.50;91.60;;;;;;2055978;28;20039;-93
2021/08/19 04:18:30;;;;;;;8.65;7.03;;;17.40;91.50;;;;;;2055647;29;20045;-93
2021/08/19 04:19:31;;;;;;;9.40;6.32;;;17.40;91.50;;;;;;2041078;29;20016;-93
2021/08/19 04:20:32;;;;;;;10.13;6.85;;;17.50;91.80;;;;;;2049664;29;20062;-93
2021/08/19 04:21:33;;;;;;;9.07;6.22;;;17.40;91.50;;;;;;2056184;29;20039;-93
2021/08/19 04:22:34;;;;;;;9.45;6.50;;;17.40;91.80;;;;;;2048254;28;20062;-93
2021/08/19 04:23:35;;;;;;;8.63;6.43;;;17.40;91.50;;;;;;2057328;28;20043;-93
2021/08/19 04:24:35;;;;;;;9.48;6.70;;;17.40;91.50;;;;;;2057278;28;20042;-93
2021/08/19 04:25:36;;;;;;;10.18;6.85;;;17.50;91.60;;;;;;2048867;28;20070;-93
2021/08/19 04:26:37;;;;;;;9.32;7.05;;;17.40;91.50;;;;;;2056966;28;20039;-93
2021/08/19 04:27:38;;;;;;;8.85;6.68;;;17.40;91.50;;;;;;2046449;29;20090;-94
2021/08/19 04:28:39;;;;;;;9.27;6.63;;;17.40;91.50;;;;;;2041128;29;20039;-94
2021/08/19 04:29:40;;;;;;;8.60;6.35;;;17.40;91.50;;;;;;2041599;28;20071;-94
2021/08/19 04:30:40;;;;;;;8.63;6.20;;;17.40;91.50;;;;;;2057969;28;20038;-93
2021/08/19 04:31:41;;;;;;;8.88;6.20;;;17.40;91.50;;;;;;2047930;29;20055;-94
2021/08/19 04:32:42;;;;;;;8.90;6.53;;;17.40;91.50;;;;;;2041810;29;20042;-93
2021/08/19 04:33:43;;;;;;;8.85;6.82;;;17.40;91.50;;;;;;2033957;29;20481;-93
2021/08/19 04:34:43;;;;;;;8.27;6.18;;;17.40;91.50;;;;;;2043661;29;20498;-93
2021/08/19 04:35:45;;;;;;;8.13;6.18;;;17.40;91.50;;;;;;2049512;28;20043;-93
2021/08/19 04:36:46;;;;;;;8.10;6.38;;;17.40;91.50;;;;;;2033452;29;20037;-93
2021/08/19 04:37:47;;;;;;;8.52;6.40;;;17.40;91.50;;;;;;2033410;29;20119;-94
2021/08/19 04:38:47;;;;;;;7.72;6.20;;;17.40;91.50;;;;;;2025540;29;20039;-94
2021/08/19 04:39:48;;;;;;;8.07;6.10;;;17.40;91.50;;;;;;2033287;29;20448;-94
2021/08/19 04:40:49;;;;;;;9.52;6.30;;;17.40;91.50;;;;;;2049282;28;20035;-93
2021/08/19 04:41:51;;;;;;;7.38;5.82;;;17.40;91.50;;;;;;2041135;29;20039;-94
2021/08/19 04:42:51;;;;;;;8.55;5.90;;;17.40;91.50;;;;;;2057433;28;20027;-93
2021/08/19 04:43:52;;;;;;;9.63;6.10;;;17.40;91.50;;;;;;2051635;29;20078;-93
2021/08/19 04:44:53;;;;;;;8.10;6.03;;;17.40;91.50;;;;;;2043493;29;20040;-93
2021/08/19 04:45:54;;;;;;;9.13;5.95;;;17.40;91.50;;;;;;2053506;28;20042;-94
2021/08/19 04:46:54;;;;;;;9.93;5.90;;;17.40;91.50;;;;;;2058820;28;20121;-94
2021/08/19 04:47:55;;;;;;;9.40;5.95;;;17.40;91.50;;;;;;2066671;28;20045;-93
2021/08/19 04:48:59;;;;;;;8.27;5.82;;;17.40;91.50;;;;;;2050760;29;20130;-93
2021/08/19 04:49:59;;;;;;;8.35;6.38;;;17.40;91.50;;;;;;2054896;28;20175;-93
2021/08/19 04:51:00;;;;;;;7.82;6.05;;;17.40;91.50;;;;;;2046718;29;20059;-94
2021/08/19 04:52:00;;;;;;;8.98;6.43;;;17.40;91.50;;;;;;2043040;29;20044;-93
2021/08/19 04:53:01;;;;;;;8.15;6.03;;;17.40;91.50;;;;;;2034521;29;20127;-93
2021/08/19 04:54:03;;;;;;;9.60;6.15;;;17.40;91.50;;;;;;2035750;29;20138;-92
2021/08/19 04:55:05;;;;;;;8.80;6.03;;;17.40;91.50;;;;;;2043237;29;20529;-93
2021/08/19 04:56:06;;;;;;;9.05;6.45;;;17.40;91.50;;;;;;2035092;29;20053;-95
2021/08/19 04:57:06;;;;;;;9.65;6.00;;;17.40;91.50;;;;;;2026436;29;20036;-93
2021/08/19 04:58:07;;;;;;;7.93;6.30;;;17.40;91.50;;;;;;2042462;29;20131;-93
2021/08/19 04:59:09;;;;;;;8.48;6.10;;;17.40;91.50;;;;;;2043635;29;20039;-94
2021/08/19 05:00:11;;;;;;;8.65;6.30;;;17.40;91.50;;;;;;2046636;28;20178;-93
2021/08/19 05:01:11;;;;;;;8.50;6.22;;;17.40;91.50;;;;;;2060078;28;20054;-94
2021/08/19 05:02:12;;;;;;;7.38;5.97;;;17.50;91.80;;;;;;2060144;28;20035;-93
2021/08/19 05:03:13;;;;;;;8.80;6.30;;;17.40;91.50;;;;;;2043751;29;20043;-93
2021/08/19 05:04:13;;;;;;;10.65;6.70;;;17.40;91.50;;;;;;2042606;29;20044;-91
2021/08/19 05:05:14;;;;;;;9.05;6.47;;;17.40;91.50;;;;;;2050303;28;20047;-92
2021/08/19 05:06:15;;;;;;;7.97;6.00;;;17.40;91.50;;;;;;2050523;29;20505;-92
2021/08/19 05:07:15;;;;;;;7.80;6.18;;;17.40;91.50;;;;;;2042956;28;20032;-95
2021/08/19 05:08:16;;;;;;;10.02;6.57;;;17.40;91.50;;;;;;2035127;29;20040;-93
2021/08/19 05:09:17;;;;;;;10.13;6.70;;;17.40;91.50;;;;;;2041912;29;20040;-93
2021/08/19 05:10:17;;;;;;;9.13;6.35;;;17.40;91.50;;;;;;2050253;29;20098;-93
2021/08/19 05:11:18;;;;;;;8.70;6.43;;;17.40;91.50;;;;;;2042596;29;20131;-92
2021/08/19 05:12:19;;;;;;;7.88;6.15;;;17.40;91.50;;;;;;2032128;29;20042;-92
2021/08/19 05:13:19;;;;;;;8.70;6.15;;;17.50;91.60;;;;;;2034716;29;20043;-93
2021/08/19 05:14:20;;;;;;;8.15;6.00;;;17.40;91.50;;;;;;2034540;29;20060;-94
2021/08/19 05:15:21;;;;;;;8.18;6.15;;;17.50;91.60;;;;;;2048697;28;20040;-92
2021/08/19 05:16:22;;;;;;;8.40;6.18;;;17.40;91.50;;;;;;2050260;28;20091;-92
2021/08/19 05:17:22;;;;;;;9.80;6.53;;;17.40;91.60;;;;;;2035474;29;20063;-91